Time;durP1;ratioP1;P1;durP2;ratioP2;P2;SDS_P1;SDS_P2;PMS_P1;PMS_P2;Temp;Humidity;BMP_temperature;BMP_pressure;BME280_temperature;BME280_humidity;BME280_pressure;Samples;Min_cycle;Max_cycle;Signal;HPM_P1;HPM_P2
2022/09/11 00:02:50;;;;;;;15.27;11.68;;;15.60;99.90;;;;;;12430115;28;20056;-38
2022/09/11 00:08:59;;;;;;;16.58;12.48;;;15.70;99.90;;;;;;12427193;28;20058;-38
2022/09/11 00:15:00;;;;;;;16.02;12.75;;;15.40;99.90;;;;;;12430143;28;20068;-38
2022/09/11 00:21:04;;;;;;;17.63;12.65;;;15.40;99.90;;;;;;12430089;28;20050;-38
2022/09/11 00:27:06;;;;;;;16.40;13.50;;;15.30;99.90;;;;;;12436858;28;20537;-38
2022/09/11 00:33:12;;;;;;;17.55;13.88;;;15.30;99.90;;;;;;12431724;28;20474;-38
2022/09/11 00:39:14;;;;;;;18.67;15.13;;;15.30;99.90;;;;;;12423408;28;20145;-38
2022/09/11 00:45:22;;;;;;;19.75;15.43;;;15.30;99.90;;;;;;12433753;28;20418;-38
2022/09/11 00:51:28;;;;;;;21.20;15.20;;;15.30;99.90;;;;;;12424631;28;20045;-39
2022/09/11 00:57:35;;;;;;;21.35;15.05;;;15.30;99.90;;;;;;12426687;28;20042;-38
2022/09/11 01:03:37;;;;;;;21.98;17.05;;;15.40;99.90;;;;;;12414884;28;20054;-38
2022/09/11 01:09:39;;;;;;;22.63;16.80;;;15.40;99.90;;;;;;12437033;28;20053;-38
2022/09/11 01:15:52;;;;;;;24.17;19.15;;;15.30;99.90;;;;;;12428593;28;20034;-38
2022/09/11 01:22:30;;;;;;;23.35;18.83;;;15.30;99.90;;;;;;12404523;28;20042;-38
2022/09/11 01:29:38;;;;;;;26.30;19.70;;;15.20;99.90;;;;;;12425766;28;20104;-38
2022/09/11 01:35:55;;;;;;;19.40;15.55;;;15.10;99.90;;;;;;12173359;29;20044;-38
2022/09/11 01:42:05;;;;;;;21.20;17.70;;;15.20;99.90;;;;;;12436077;28;20452;-38
2022/09/11 01:48:09;;;;;;;31.40;20.35;;;15.00;99.90;;;;;;12431401;28;20054;-38
2022/09/11 01:54:18;;;;;;;26.67;21.48;;;14.90;99.90;;;;;;12427304;28;20418;-38
2022/09/11 02:00:21;;;;;;;27.70;21.65;;;14.80;99.90;;;;;;12435725;28;20045;-38
2022/09/11 02:06:39;;;;;;;27.73;20.25;;;14.80;99.90;;;;;;12435305;28;20176;-38
2022/09/11 02:12:49;;;;;;;31.90;22.75;;;14.90;99.90;;;;;;12434709;28;20057;-39
2022/09/11 02:18:59;;;;;;;29.33;23.40;;;14.90;99.90;;;;;;12425628;28;20499;-38
2022/09/11 02:25:02;;;;;;;39.35;27.30;;;14.90;99.90;;;;;;12437214;28;20046;-39
2022/09/11 02:31:06;;;;;;;36.22;26.67;;;14.80;99.90;;;;;;12439326;28;20050;-38
2022/09/11 02:37:25;;;;;;;43.03;30.65;;;15.00;99.90;;;;;;12432259;28;20049;-39
2022/09/11 02:43:45;;;;;;;44.80;29.05;;;14.90;99.90;;;;;;12432074;28;20061;-39
2022/09/11 02:49:53;;;;;;;50.72;33.13;;;14.80;99.90;;;;;;12431038;28;20054;-38
2022/09/11 02:56:10;;;;;;;54.67;35.38;;;14.90;99.90;;;;;;12431859;28;20794;-39
2022/09/11 03:02:14;;;;;;;58.15;36.40;;;14.90;99.90;;;;;;12437218;28;20078;-39
2022/09/11 03:08:16;;;;;;;60.53;36.63;;;15.00;99.90;;;;;;12438285;28;20042;-39
2022/09/11 03:14:17;;;;;;;52.72;32.97;;;14.90;99.90;;;;;;12421548;28;20510;-39
2022/09/11 03:20:20;;;;;;;67.40;39.60;;;15.10;99.90;;;;;;12421002;28;20054;-39
2022/09/11 03:26:24;;;;;;;60.67;36.85;;;15.00;99.90;;;;;;12425339;28;20049;-38
2022/09/11 03:32:25;;;;;;;66.67;37.43;;;15.00;99.90;;;;;;12439079;28;20042;-39
2022/09/11 03:38:27;;;;;;;55.88;34.17;;;15.10;99.90;;;;;;12437611;28;20058;-39
2022/09/11 03:44:29;;;;;;;52.22;33.63;;;15.10;99.90;;;;;;12425184;28;20046;-39
2022/09/11 03:50:31;;;;;;;60.83;36.20;;;15.00;99.90;;;;;;12421876;28;20046;-39
2022/09/11 03:56:33;;;;;;;65.90;37.70;;;15.00;99.90;;;;;;12424538;28;20049;-41
2022/09/11 04:02:35;;;;;;;62.58;35.88;;;15.00;99.90;;;;;;12434572;28;20080;-39
2022/09/11 04:08:40;;;;;;;61.92;35.75;;;15.00;99.90;;;;;;12423279;28;20050;-39
2022/09/11 04:14:41;;;;;;;65.22;34.42;;;15.10;99.90;;;;;;12418911;28;20405;-39
2022/09/11 04:20:43;;;;;;;58.88;32.25;;;15.00;99.90;;;;;;12425981;28;20038;-39
2022/09/11 04:26:45;;;;;;;67.10;35.05;;;15.00;99.90;;;;;;12421561;28;20494;-40
2022/09/11 04:32:47;;;;;;;63.78;34.88;;;15.00;99.90;;;;;;12431583;28;20490;-39
2022/09/11 04:38:54;;;;;;;62.63;34.03;;;15.00;99.90;;;;;;12425756;28;20046;-39
2022/09/11 04:44:56;;;;;;;59.80;31.67;;;15.00;99.90;;;;;;12423494;28;20506;-39
2022/09/11 04:51:00;;;;;;;63.35;33.92;;;15.00;99.90;;;;;;12422356;28;20058;-38
2022/09/11 04:57:03;;;;;;;59.50;31.52;;;15.00;99.90;;;;;;12420186;28;20045;-38
2022/09/11 05:03:04;;;;;;;50.97;28.58;;;15.00;99.90;;;;;;12426867;28;20050;-39
2022/09/11 05:09:08;;;;;;;51.05;28.00;;;15.10;99.90;;;;;;12428966;28;20045;-38
2022/09/11 05:15:10;;;;;;;54.15;29.77;;;15.00;99.90;;;;;;12430935;28;20048;-39
2022/09/11 05:21:16;;;;;;;55.47;28.55;;;15.00;99.90;;;;;;12426986;28;20049;-39
2022/09/11 05:27:18;;;;;;;50.90;28.58;;;14.90;99.90;;;;;;12432321;28;20057;-38
2022/09/11 05:33:24;;;;;;;54.05;29.30;;;14.90;99.90;;;;;;12428529;28;20485;-38
2022/09/11 05:39:26;;;;;;;52.58;28.77;;;14.90;99.90;;;;;;12428486;28;20406;-38
2022/09/11 05:45:28;;;;;;;47.58;27.05;;;14.90;99.90;;;;;;12430925;28;20100;-40
2022/09/11 05:51:34;;;;;;;41.80;24.88;;;14.90;99.90;;;;;;12433949;28;20085;-38
2022/09/11 05:57:36;;;;;;;48.80;26.42;;;14.90;99.90;;;;;;12440730;28;20038;-39
2022/09/11 06:03:38;;;;;;;44.33;25.70;;;14.90;99.90;;;;;;12438555;28;20579;-39
2022/09/11 06:09:40;;;;;;;41.75;24.70;;;14.90;99.90;;;;;;12431365;28;20482;-38
2022/09/11 06:15:46;;;;;;;35.65;21.27;;;14.80;99.90;;;;;;12421237;28;20048;-38
2022/09/11 06:21:49;;;;;;;37.65;21.52;;;14.90;99.90;;;;;;12436396;28;20422;-38
2022/09/11 06:27:50;;;;;;;33.10;21.40;;;14.80;99.90;;;;;;12433575;28;20056;-39
2022/09/11 06:33:52;;;;;;;43.00;20.98;;;14.80;99.90;;;;;;12430910;28;20049;-38
2022/09/11 06:39:54;;;;;;;34.10;19.48;;;14.80;99.90;;;;;;12439173;28;20391;-39
2022/09/11 06:46:09;;;;;;;41.75;21.38;;;14.80;99.90;;;;;;12430824;28;20092;-38
2022/09/11 06:52:10;;;;;;;;;;;14.70;99.90;;;;;;12431978;28;20045;-38
2022/09/11 06:58:12;;;;;;;29.65;19.38;;;14.70;99.90;;;;;;12438194;28;20289;-39
2022/09/11 07:04:14;;;;;;;26.33;16.70;;;14.80;99.90;;;;;;12426484;28;20045;-42
2022/09/11 07:10:16;;;;;;;29.77;18.38;;;14.70;99.90;;;;;;12425956;28;20045;-39
2022/09/11 07:16:18;;;;;;;29.95;19.08;;;14.70;99.90;;;;;;12426163;28;20089;-38
2022/09/11 07:22:20;;;;;;;24.77;17.10;;;14.60;99.90;;;;;;12425176;28;20551;-40
2022/09/11 07:28:24;;;;;;;26.27;17.45;;;14.70;99.90;;;;;;12437984;28;20056;-39
2022/09/11 07:34:26;;;;;;;24.17;16.20;;;14.70;99.90;;;;;;12433595;28;20050;-38
2022/09/11 07:40:27;;;;;;;25.38;16.00;;;14.70;99.90;;;;;;12429315;28;20053;-38
2022/09/11 07:46:30;;;;;;;23.92;15.85;;;14.70;99.90;;;;;;12414681;28;20050;-38
2022/09/11 07:52:32;;;;;;;27.30;17.27;;;14.80;99.90;;;;;;12433187;28;20054;-39
2022/09/11 07:58:38;;;;;;;27.70;17.83;;;14.70;99.90;;;;;;12426763;28;20042;-39
2022/09/11 08:04:40;;;;;;;26.98;17.42;;;14.60;99.90;;;;;;12416457;28;20418;-38
2022/09/11 08:10:42;;;;;;;27.25;17.65;;;14.80;99.90;;;;;;12443452;28;20045;-40
2022/09/11 08:16:44;;;;;;;25.80;16.13;;;14.60;99.90;;;;;;12425574;28;20050;-39
2022/09/11 08:22:45;;;;;;;25.77;16.88;;;14.80;99.90;;;;;;12428302;28;20050;-39
2022/09/11 08:28:49;;;;;;;25.58;16.77;;;14.80;99.90;;;;;;12432805;28;20072;-39
2022/09/11 08:34:51;;;;;;;27.15;18.00;;;14.90;99.90;;;;;;12427388;28;20112;-38
2022/09/11 08:40:56;;;;;;;25.92;16.63;;;15.10;99.90;;;;;;12430116;28;20045;-38
2022/09/11 08:47:06;;;;;;;26.85;17.58;;;15.00;99.90;;;;;;12424222;28;20056;-38
2022/09/11 08:53:14;;;;;;;26.02;16.40;;;15.00;99.90;;;;;;12425408;28;20065;-39
2022/09/11 08:59:22;;;;;;;28.38;17.10;;;15.20;99.90;;;;;;12426596;28;20049;-39
2022/09/11 09:05:48;;;;;;;25.70;16.85;;;15.30;99.90;;;;;;12428066;28;20052;-38
2022/09/11 09:12:08;;;;;;;25.02;16.83;;;15.30;99.90;;;;;;12420243;28;20053;-38
2022/09/11 09:18:29;;;;;;;24.98;16.15;;;15.50;99.90;;;;;;12437946;28;20042;-39
2022/09/11 09:24:40;;;;;;;22.08;15.43;;;15.70;99.90;;;;;;12434185;28;20041;-39
2022/09/11 09:31:14;;;;;;;20.90;13.95;;;15.70;99.90;;;;;;12440832;28;20191;-39
2022/09/11 09:37:21;;;;;;;26.63;17.07;;;15.80;99.90;;;;;;12421507;28;20184;-39
2022/09/11 09:43:54;;;;;;;23.25;15.68;;;15.60;99.90;;;;;;12426668;28;20046;-40
2022/09/11 09:49:59;;;;;;;21.95;16.05;;;15.50;99.90;;;;;;12433018;28;20075;-39
2022/09/11 09:56:04;;;;;;;21.95;16.05;;;15.40;99.90;;;;;;12431856;28;20049;-39
2022/09/11 10:02:06;;;;;;;23.85;15.70;;;15.40;99.90;;;;;;12444926;28;20038;-40
2022/09/11 10:08:30;;;;;;;22.00;15.82;;;15.40;99.90;;;;;;12428766;28;20053;-38
2022/09/11 10:14:41;;;;;;;22.75;15.07;;;15.60;99.90;;;;;;12436958;28;20502;-39
2022/09/11 10:21:10;;;;;;;21.13;13.68;;;15.60;99.90;;;;;;12440341;28;20050;-39
2022/09/11 10:27:12;;;;;;;18.30;12.45;;;15.70;99.90;;;;;;12428479;28;20064;-38
2022/09/11 10:33:33;;;;;;;16.17;11.25;;;15.80;99.90;;;;;;12433142;28;20334;-39
2022/09/11 10:39:36;;;;;;;15.95;11.43;;;16.00;99.90;;;;;;12429929;28;20049;-39
2022/09/11 10:45:38;;;;;;;16.00;11.27;;;16.10;99.90;;;;;;12427472;28;20056;-39
2022/09/11 10:51:42;;;;;;;20.02;10.73;;;16.20;99.90;;;;;;12423324;28;20054;-39
2022/09/11 10:57:52;;;;;;;16.88;10.60;;;16.20;99.90;;;;;;12437805;28;20057;-39
2022/09/11 11:03:55;;;;;;;14.30;10.18;;;16.30;99.90;;;;;;12435625;28;20045;-38
2022/09/11 11:10:15;;;;;;;13.27;9.00;;;16.40;99.90;;;;;;12433370;28;20422;-38
2022/09/11 11:16:53;;;;;;;17.30;9.88;;;16.30;99.90;;;;;;12436893;28;20054;-39
2022/09/11 11:23:21;;;;;;;15.65;10.98;;;16.20;99.90;;;;;;12426042;28;20038;-40
2022/09/11 11:29:49;;;;;;;17.73;12.68;;;16.10;99.90;;;;;;12440313;28;20517;-39
2022/09/11 11:36:07;;;;;;;17.80;11.60;;;16.00;99.90;;;;;;12435586;28;20046;-40
2022/09/11 11:42:28;;;;;;;17.67;12.38;;;16.00;99.90;;;;;;12432421;28;20053;-39
2022/09/11 11:48:43;;;;;;;18.63;12.23;;;16.10;99.90;;;;;;12418569;28;20046;-39
2022/09/11 11:55:00;;;;;;;18.83;11.88;;;16.30;99.90;;;;;;12413813;28;20518;-40
2022/09/11 12:01:05;;;;;;;19.77;12.85;;;16.60;99.90;;;;;;12430384;28;20050;-38
2022/09/11 12:07:15;;;;;;;16.58;11.25;;;16.70;99.90;;;;;;12439534;28;20073;-40
2022/09/11 12:13:19;;;;;;;14.93;9.10;;;16.90;99.90;;;;;;12424603;28;20046;-38
2022/09/11 12:19:24;;;;;;;17.05;9.02;;;17.40;99.90;;;;;;12431476;28;20049;-39
2022/09/11 12:25:29;;;;;;;13.25;8.10;;;17.50;99.90;;;;;;12430214;28;20413;-39
2022/09/11 12:31:52;;;;;;;13.18;8.60;;;18.40;99.90;;;;;;12443482;28;20118;-39
2022/09/11 12:38:13;;;;;;;10.00;5.53;;;19.30;99.90;;;;;;12429338;28;20041;-38
2022/09/11 12:44:50;;;;;;;7.85;5.95;;;19.90;99.90;;;;;;12429876;28;20413;-39
2022/09/11 12:50:55;;;;;;;9.43;6.05;;;20.20;99.90;;;;;;12352176;28;20045;-40
2022/09/11 12:57:06;;;;;;;8.65;6.07;;;20.00;99.90;;;;;;12425836;28;20060;-40
2022/09/11 13:03:21;;;;;;;9.68;6.30;;;19.60;99.90;;;;;;12429575;28;20041;-39
2022/09/11 13:09:32;;;;;;;8.93;4.78;;;19.30;99.90;;;;;;12424315;28;20045;-40
2022/09/11 13:15:39;;;;;;;8.43;4.85;;;20.00;99.90;;;;;;12434133;28;20042;-39
2022/09/11 13:21:44;;;;;;;9.30;5.13;;;20.40;99.90;;;;;;12419778;28;20542;-39
2022/09/11 13:27:55;;;;;;;7.55;4.95;;;20.80;99.90;;;;;;12428151;28;20054;-38
2022/09/11 13:33:59;;;;;;;8.88;5.40;;;20.60;99.90;;;;;;12426023;28;20058;-39
2022/09/11 13:40:03;;;;;;;9.10;4.72;;;20.10;99.90;;;;;;12426884;28;20084;-39
2022/09/11 13:46:22;;;;;;;7.68;4.45;;;19.60;99.90;;;;;;12428729;28;20046;-39
2022/09/11 13:52:26;;;;;;;8.23;4.82;;;19.80;99.90;;;;;;12421989;28;20057;-38
2022/09/11 13:58:33;;;;;;;6.40;3.80;;;20.10;99.90;;;;;;12429025;28;20069;-39
2022/09/11 14:04:40;;;;;;;7.40;3.28;;;20.10;99.90;;;;;;12435185;28;20413;-38
2022/09/11 14:10:46;;;;;;;7.43;3.83;;;19.60;99.90;;;;;;12439560;28;20050;-39
2022/09/11 14:16:53;;;;;;;9.15;3.80;;;19.30;99.90;;;;;;12425455;28;20073;-39
2022/09/11 14:23:02;;;;;;;8.15;4.18;;;19.20;99.90;;;;;;12435274;28;20046;-38
2022/09/11 14:29:21;;;;;;;6.13;4.28;;;19.20;99.90;;;;;;12441160;28;20061;-40
2022/09/11 14:35:23;;;;;;;7.82;3.63;;;19.20;99.90;;;;;;12441545;28;20061;-38
2022/09/11 14:41:25;;;;;;;6.22;3.95;;;19.30;99.90;;;;;;12438923;28;20049;-38
2022/09/11 14:47:28;;;;;;;7.65;3.58;;;19.50;99.90;;;;;;12422745;28;20048;-39
2022/09/11 14:53:32;;;;;;;5.35;2.80;;;19.80;99.90;;;;;;12425135;28;20133;-39
2022/09/11 14:59:34;;;;;;;4.45;2.75;;;20.20;99.90;;;;;;12430607;28;20479;-38
2022/09/11 15:05:36;;;;;;;3.72;2.45;;;21.00;99.90;;;;;;12428312;28;20096;-39
2022/09/11 15:11:40;;;;;;;6.72;3.22;;;21.10;99.90;;;;;;12428656;28;20050;-39
2022/09/11 15:17:42;;;;;;;;;;;21.40;99.90;;;;;;12430224;28;20044;-38
2022/09/11 15:23:46;;;;;;;4.00;2.63;;;21.70;99.90;;;;;;12429639;28;19929;-39
2022/09/11 15:29:47;;;;;;;6.55;2.50;;;21.40;99.90;;;;;;12435165;28;20506;-39
2022/09/11 15:35:49;;;;;;;4.25;2.50;;;20.70;99.90;;;;;;12438069;28;20045;-38
2022/09/11 15:41:53;;;;;;;6.10;2.60;;;20.50;99.90;;;;;;12434840;28;20413;-38
2022/09/11 15:47:58;;;;;;;4.07;2.47;;;20.70;99.90;;;;;;12431223;28;20041;-39
2022/09/11 15:54:01;;;;;;;4.43;2.22;;;21.20;99.90;;;;;;12427960;28;20124;-40
2022/09/11 16:00:04;;;;;;;7.25;2.65;;;21.80;99.90;;;;;;12433964;28;20049;-41
2022/09/11 16:06:06;;;;;;;4.23;2.60;;;22.00;99.90;;;;;;12435344;28;20057;-40
2022/09/11 16:12:08;;;;;;;6.53;2.47;;;21.90;99.90;;;;;;12424785;28;20050;-38
2022/09/11 16:18:10;;;;;;;5.78;2.53;;;21.50;99.90;;;;;;12415714;28;20049;-39
2022/09/11 16:24:15;;;;;;;5.80;2.40;;;20.90;99.90;;;;;;12434671;28;20061;-38
2022/09/11 16:30:17;;;;;;;4.55;2.60;;;20.50;99.90;;;;;;12432561;28;20069;-40
2022/09/11 16:36:40;;;;;;;8.10;2.83;;;20.10;99.90;;;;;;12429629;28;20048;-39
2022/09/11 16:42:42;;;;;;;6.20;2.50;;;19.60;99.90;;;;;;12429003;28;20050;-39
2022/09/11 16:48:44;;;;;;;4.78;2.55;;;19.40;99.90;;;;;;12421576;28;20046;-39
2022/09/11 16:54:51;;;;;;;9.77;3.10;;;19.50;99.90;;;;;;12428100;28;20065;-39
2022/09/11 17:00:52;;;;;;;6.20;2.80;;;19.40;99.90;;;;;;12432493;28;20486;-41
2022/09/11 17:06:55;;;;;;;4.25;2.63;;;19.20;99.90;;;;;;12440000;28;20045;-40
2022/09/11 17:12:58;;;;;;;6.20;2.90;;;19.00;99.90;;;;;;12415792;28;20523;-39
2022/09/11 17:19:00;;;;;;;7.30;3.30;;;19.00;99.90;;;;;;12424310;28;20065;-39
2022/09/11 17:25:03;;;;;;;6.55;2.80;;;18.90;99.90;;;;;;12420055;28;20053;-39
2022/09/11 17:31:07;;;;;;;7.53;3.80;;;18.60;99.90;;;;;;12432927;28;20050;-39
2022/09/11 17:37:09;;;;;;;;;;;18.30;99.90;;;;;;12432566;28;20037;-39
2022/09/11 17:43:11;;;;;;;6.32;2.75;;;18.20;99.90;;;;;;12443965;28;19921;-40
2022/09/11 17:49:13;;;;;;;7.70;3.10;;;18.10;99.90;;;;;;12428427;28;20060;-38
2022/09/11 17:55:15;;;;;;;4.15;2.70;;;17.90;99.90;;;;;;12430434;28;20053;-39
2022/09/11 18:01:18;;;;;;;5.53;2.90;;;17.70;99.90;;;;;;12435716;28;20045;-39
2022/09/11 18:07:20;;;;;;;6.43;2.90;;;17.50;99.90;;;;;;12440839;28;20081;-38
2022/09/11 18:13:22;;;;;;;4.45;2.75;;;17.30;99.90;;;;;;12436060;28;20049;-38
2022/09/11 18:19:24;;;;;;;5.78;3.33;;;17.00;99.90;;;;;;12433907;28;20476;-38
2022/09/11 18:25:26;;;;;;;5.63;3.17;;;16.70;99.90;;;;;;12432371;28;20061;-38
2022/09/11 18:31:30;;;;;;;5.13;3.17;;;16.70;99.90;;;;;;12441524;28;20053;-38
2022/09/11 18:37:33;;;;;;;6.43;3.08;;;16.50;99.90;;;;;;12433413;28;20053;-39
2022/09/11 18:43:34;;;;;;;7.07;3.22;;;16.20;99.90;;;;;;12435680;28;20068;-39
2022/09/11 18:49:37;;;;;;;5.47;3.40;;;16.10;99.90;;;;;;12435982;28;20401;-39
2022/09/11 18:55:39;;;;;;;5.35;3.13;;;15.80;99.90;;;;;;12437647;28;20191;-38
2022/09/11 19:01:41;;;;;;;7.75;3.95;;;15.70;99.90;;;;;;12436442;28;20379;-38
2022/09/11 19:07:45;;;;;;;9.27;5.18;;;15.60;99.90;;;;;;12431351;28;20490;-38
2022/09/11 19:13:48;;;;;;;10.02;5.80;;;15.60;99.90;;;;;;12431012;28;20528;-38
2022/09/11 19:19:50;;;;;;;8.23;5.25;;;15.80;99.90;;;;;;12430049;28;20065;-38
2022/09/11 19:25:52;;;;;;;8.10;4.97;;;15.90;99.90;;;;;;12429794;28;20413;-39
2022/09/11 19:31:54;;;;;;;11.60;6.32;;;15.90;99.90;;;;;;12439948;28;20073;-39
2022/09/11 19:37:55;;;;;;;9.38;5.90;;;16.00;99.90;;;;;;12434080;28;20430;-38
2022/09/11 19:44:01;;;;;;;8.85;5.97;;;16.00;99.90;;;;;;12417153;28;20050;-38
2022/09/11 19:50:04;;;;;;;8.55;6.85;;;15.90;99.90;;;;;;12426279;28;20674;-38
2022/09/11 19:56:07;;;;;;;10.57;6.97;;;16.00;99.90;;;;;;12419087;28;20046;-38
2022/09/11 20:02:10;;;;;;;7.60;5.53;;;16.20;99.90;;;;;;12423429;28;20433;-38
2022/09/11 20:08:13;;;;;;;11.30;6.35;;;16.40;99.90;;;;;;12431798;28;20073;-38
2022/09/11 20:14:17;;;;;;;10.95;7.10;;;16.10;99.90;;;;;;12423713;28;20413;-38
2022/09/11 20:20:19;;;;;;;10.80;7.18;;;16.10;99.90;;;;;;12428119;28;20526;-38
2022/09/11 20:26:27;;;;;;;11.13;6.88;;;16.20;99.90;;;;;;12414343;28;20054;-39
2022/09/11 20:32:29;;;;;;;12.15;7.38;;;16.30;99.90;;;;;;12427194;28;20414;-39
2022/09/11 20:38:31;;;;;;;10.77;6.50;;;16.30;99.90;;;;;;12427043;28;20398;-38
2022/09/11 20:44:33;;;;;;;10.52;7.57;;;16.20;99.90;;;;;;12420736;28;20045;-39
2022/09/11 20:50:37;;;;;;;10.20;7.28;;;16.20;99.90;;;;;;12415379;28;20053;-39
2022/09/11 20:56:39;;;;;;;11.15;7.20;;;16.00;99.90;;;;;;12429032;28;20089;-38
2022/09/11 21:02:41;;;;;;;11.27;7.97;;;16.00;99.90;;;;;;12425202;28;20525;-38
2022/09/11 21:08:43;;;;;;;11.43;8.15;;;16.00;99.90;;;;;;12433777;28;20060;-38
2022/09/11 21:14:44;;;;;;;11.63;8.10;;;16.00;99.90;;;;;;12424313;28;20049;-38
2022/09/11 21:20:56;;;;;;;11.73;8.35;;;16.00;99.90;;;;;;12416522;28;20069;-38
2022/09/11 21:26:57;;;;;;;11.38;8.50;;;15.90;99.90;;;;;;12421380;28;20053;-38
2022/09/11 21:32:59;;;;;;;12.15;9.35;;;15.90;99.90;;;;;;12433516;28;20046;-38
2022/09/11 21:39:01;;;;;;;15.23;8.82;;;15.90;99.90;;;;;;12422606;28;20050;-39
2022/09/11 21:45:03;;;;;;;13.90;9.55;;;15.80;99.90;;;;;;12427761;28;20054;-38
2022/09/11 21:51:13;;;;;;;11.57;8.35;;;15.80;99.90;;;;;;12425014;28;20049;-38
2022/09/11 21:57:14;;;;;;;10.27;7.32;;;15.90;99.90;;;;;;12426965;28;20399;-39
2022/09/11 22:03:18;;;;;;;10.27;7.45;;;16.00;99.90;;;;;;12431914;28;20053;-38
2022/09/11 22:09:19;;;;;;;10.60;6.80;;;16.10;99.90;;;;;;12431390;28;20070;-37
2022/09/11 22:15:21;;;;;;;10.55;7.10;;;15.90;99.90;;;;;;12408575;28;20054;-39
2022/09/11 22:21:23;;;;;;;9.93;6.05;;;15.70;99.90;;;;;;12430935;28;20046;-39
2022/09/11 22:27:25;;;;;;;12.02;7.10;;;15.70;99.90;;;;;;12428330;28;20057;-38
2022/09/11 22:33:27;;;;;;;10.73;6.40;;;15.60;99.90;;;;;;12440319;28;20057;-39
2022/09/11 22:39:30;;;;;;;10.48;6.82;;;15.60;99.90;;;;;;12436171;28;20046;-38
2022/09/11 22:45:32;;;;;;;8.73;6.38;;;15.60;99.90;;;;;;12432231;28;20445;-39
2022/09/11 22:51:34;;;;;;;9.88;6.65;;;15.70;99.90;;;;;;12419064;28;20057;-38
2022/09/11 22:57:36;;;;;;;9.65;7.18;;;15.40;99.90;;;;;;12433260;28;20042;-39
2022/09/11 23:03:38;;;;;;;10.48;6.90;;;15.60;99.90;;;;;;12424657;28;20057;-38
2022/09/11 23:09:40;;;;;;;10.93;7.88;;;15.50;99.90;;;;;;12432592;28;20042;-39
2022/09/11 23:15:42;;;;;;;13.07;7.30;;;15.40;99.90;;;;;;12435155;28;20042;-39
2022/09/11 23:21:43;;;;;;;10.30;7.40;;;15.50;99.90;;;;;;12436102;28;20541;-41
2022/09/11 23:27:45;;;;;;;11.48;8.55;;;15.40;99.90;;;;;;12431282;28;20050;-39
2022/09/11 23:33:47;;;;;;;13.35;9.00;;;15.20;99.90;;;;;;12435265;28;20049;-38
2022/09/11 23:39:49;;;;;;;11.45;9.40;;;15.10;99.90;;;;;;12431873;28;20049;-38
2022/09/11 23:45:51;;;;;;;14.10;10.05;;;15.00;99.90;;;;;;12427416;28;20049;-39
2022/09/11 23:51:53;;;;;;;14.27;9.57;;;15.00;99.90;;;;;;12421273;28;20042;-39
2022/09/11 23:57:55;;;;;;;13.55;9.80;;;15.00;99.90;;;;;;12431897;28;20046;-38
